Oneiro — SVA3427 — position and weather

sailwx.info

Track history (hours):
 
Tides and Currents Weather Stations Pressure Air Temp Water Temp Dewpoint Dewpoint Depression Visibility Wind Speed Wind Dir Waves Ship Positions

Oneiro

Last reported at 2017-Aug-13 21:57 UTC. Time now 2017-Aug-19 05:30 UTC.
Position N 37°54' E 023°04'.

Length 53 m; draft 3 m.

Type: Pleasure craft. MMSI: 241024000.

Date/timePositionNaut miles runAvg speedWind from/ knotsBaromVisibWave heightAir tempDewpointWater temp
2017-Aug-13 21:57N 37°54' E 023°04'912.3
2017-Aug-13 21:14N 37°52' E 023°15'312.4
2017-Aug-13 21:00N 37°51' E 023°19'612.4
2017-Aug-13 20:30N 37°50' E 023°26'612.3
2017-Aug-13 20:01N 37°47' E 023°33'3 1.0
2017-Aug-13 17:34N 37°45' E 023°33'0 0.0
2017-Aug-13 17:26N 37°45' E 023°33'0 0.1
2017-Aug-13 17:00N 37°45' E 023°33'611.4
2017-Aug-13 16:30N 37°41' E 023°39'53 2.4
2017-Aug-12 18:12N 37°31' E 024°44'312.6
2017-Aug-12 17:57N 37°32' E 024°48'1212.6
2017-Aug-12 16:59N 37°32' E 025°03'510.0
2017-Aug-12 16:28N 37°32' E 025°10'0 0.0
2017-Aug-12 15:43N 37°32' E 025°10'0 0.0
2017-Aug-12 15:24N 37°32' E 025°10'0 0.0
2017-Aug-12 14:59N 37°32' E 025°10'0 0.0
2017-Aug-12 14:26N 37°32' E 025°10'0 0.0
2017-Aug-12 13:54N 37°32' E 025°10'0 0.0
2017-Aug-12 13:30N 37°32' E 025°10'0 0.0
2017-Aug-12 12:58N 37°32' E 025°10'0 0.0
2017-Aug-12 12:30N 37°32' E 025°10'0 0.0
2017-Aug-12 12:00N 37°32' E 025°10'0 0.0
2017-Aug-12 11:29N 37°32' E 025°10'0 0.0
2017-Aug-12 11:00N 37°32' E 025°10'0 0.0
2017-Aug-12 10:23N 37°32' E 025°10'0 0.0
2017-Aug-12 09:59N 37°32' E 025°10'0 0.0
2017-Aug-12 09:28N 37°32' E 025°10'0 0.1
2017-Aug-12 08:55N 37°32' E 025°10'1 1.3
2017-Aug-12 08:30N 37°32' E 025°09'6011.6
2017-Aug-12 03:20N 37°41' E 023°54'412.4
2017-Aug-12 03:00N 37°44' E 023°50'611.8
2017-Aug-12 02:30N 37°48' E 023°46'0 0.6
2017-Aug-12 02:00N 37°49' E 023°46'0 0.0
2017-Aug-12 01:30N 37°49' E 023°46'0 0.0
2017-Aug-12 01:00N 37°49' E 023°46'0 0.0
2017-Aug-12 00:30N 37°49' E 023°46'0 0.0
2017-Aug-12 00:00N 37°49' E 023°46'0 0.0
2017-Aug-11 23:30N 37°49' E 023°46'0 0.0
2017-Aug-11 23:00N 37°49' E 023°46'0 0.0
2017-Aug-11 22:30N 37°49' E 023°46'0 0.0
2017-Aug-11 22:00N 37°49' E 023°46'0 0.0
2017-Aug-11 21:30N 37°49' E 023°46'0 0.0
2017-Aug-11 21:00N 37°49' E 023°46'0 0.0
2017-Aug-11 20:30N 37°49' E 023°46'0 0.0
2017-Aug-11 20:00N 37°49' E 023°46'0 0.0
2017-Aug-11 19:30N 37°49' E 023°46'0 0.0
2017-Aug-11 19:00N 37°49' E 023°46'0 0.0
2017-Aug-11 18:30N 37°49' E 023°46'0 0.0
2017-Aug-11 18:00N 37°49' E 023°46'0 0.1
2017-Aug-11 17:30N 37°49' E 023°46'510.2
2017-Aug-11 17:00N 37°52' E 023°42'4 8.5
2017-Aug-11 16:30N 37°56' E 023°39'0 0.0
2017-Aug-11 16:00N 37°56' E 023°39'0 0.0
2017-Aug-11 15:30N 37°56' E 023°39'0 0.0
2017-Aug-11 15:00N 37°56' E 023°39'0 0.0
2017-Aug-11 14:30N 37°56' E 023°39'0 0.0
2017-Aug-11 13:30N 37°56' E 023°39'0 0.0
2017-Aug-11 13:00N 37°56' E 023°39'0 0.0
2017-Aug-11 12:30N 37°56' E 023°39'0 0.0
2017-Aug-11 12:00N 37°56' E 023°39'0 0.0
2017-Aug-11 11:30N 37°56' E 023°39'0 0.0
2017-Aug-11 11:00N 37°56' E 023°39'0 0.0
2017-Aug-11 10:30N 37°56' E 023°39'0 0.0
2017-Aug-11 10:00N 37°56' E 023°39'0 0.0
2017-Aug-11 09:30N 37°56' E 023°39'0 0.0
2017-Aug-11 09:00N 37°56' E 023°39'0 0.0
2017-Aug-11 08:30N 37°56' E 023°39'0 0.0
2017-Aug-11 08:00N 37°56' E 023°39'0 0.0
2017-Aug-11 07:30N 37°56' E 023°39'0 0.0
2017-Aug-11 07:00N 37°56' E 023°39'0 0.0
2017-Aug-11 06:30N 37°56' E 023°39'0 0.0
2017-Aug-11 06:00N 37°56' E 023°39'0 0.0
2017-Aug-11 05:30N 37°56' E 023°39'0 0.0
2017-Aug-11 05:00N 37°56' E 023°39'0 0.0
2017-Aug-11 04:30N 37°56' E 023°39'0 0.0
2017-Aug-11 04:00N 37°56' E 023°39'0 0.0
2017-Aug-11 03:30N 37°56' E 023°39'0 0.0
2017-Aug-11 03:00N 37°56' E 023°39'0 0.0
2017-Aug-11 02:30N 37°56' E 023°39'0 0.0
2017-Aug-11 02:00N 37°56' E 023°39'0 0.0
2017-Aug-11 01:30N 37°56' E 023°39'0 0.0
2017-Aug-11 01:00N 37°56' E 023°39'0 0.0
2017-Aug-11 00:30N 37°56' E 023°39'0 0.0
2017-Aug-11 00:00N 37°56' E 023°39'0 0.0
2017-Aug-10 23:30N 37°56' E 023°39'0 0.0
2017-Aug-10 23:00N 37°56' E 023°39'0 0.0
2017-Aug-10 22:30N 37°56' E 023°39'0 0.0
2017-Aug-10 22:00N 37°56' E 023°39'0 0.0
2017-Aug-10 21:30N 37°56' E 023°39'0 0.0
2017-Aug-10 21:00N 37°56' E 023°39'0 0.0
2017-Aug-10 20:30N 37°56' E 023°39'0 0.0
2017-Aug-10 20:00N 37°56' E 023°39'0 0.0
2017-Aug-10 19:30N 37°56' E 023°39'0 0.0
2017-Aug-10 19:00N 37°56' E 023°39'0 0.0
2017-Aug-10 18:30N 37°56' E 023°39'0 0.0
2017-Aug-10 18:00N 37°56' E 023°39'0 0.0
2017-Aug-10 17:30N 37°56' E 023°39'0 0.0
2017-Aug-10 17:00N 37°56' E 023°39'0 0.0
2017-Aug-10 16:30N 37°56' E 023°39'0 0.0
2017-Aug-10 16:00N 37°56' E 023°39'0 0.0
2017-Aug-10 15:30N 37°56' E 023°39'0 0.0
2017-Aug-10 15:00N 37°56' E 023°39'0 0.0
2017-Aug-10 14:30N 37°56' E 023°39'0 0.0
2017-Aug-10 14:00N 37°56' E 023°39'0 0.0
2017-Aug-10 13:30N 37°56' E 023°39'0 0.0
2017-Aug-10 13:00N 37°56' E 023°39'0 0.0
2017-Aug-10 12:30N 37°56' E 023°39'0 0.0
2017-Aug-10 12:00N 37°56' E 023°39'0 0.0
2017-Aug-10 11:30N 37°56' E 023°39'0 0.0
2017-Aug-10 11:00N 37°56' E 023°39'0 0.0
2017-Aug-10 10:30N 37°56' E 023°39'0 0.0
2017-Aug-10 10:00N 37°56' E 023°39'0 0.0
2017-Aug-10 09:30N 37°56' E 023°39'0 0.0
2017-Aug-10 09:00N 37°56' E 023°39'0 0.0
2017-Aug-10 08:30N 37°56' E 023°39'0 0.0
2017-Aug-10 08:00N 37°56' E 023°39'0 0.0
2017-Aug-10 07:30N 37°56' E 023°39'0 0.0
2017-Aug-10 07:00N 37°56' E 023°39'0 0.0
2017-Aug-10 06:30N 37°56' E 023°39'0 0.0
2017-Aug-10 06:00N 37°56' E 023°39'0 0.0
2017-Aug-10 05:30N 37°56' E 023°39'0 0.0
2017-Aug-10 05:00N 37°56' E 023°39'0 0.0
2017-Aug-10 04:30N 37°56' E 023°39'0 0.0
2017-Aug-10 04:00N 37°56' E 023°39'0 0.0
2017-Aug-10 03:30N 37°56' E 023°39'0 0.0
2017-Aug-10 03:00N 37°56' E 023°39'0 0.0
2017-Aug-10 02:30N 37°56' E 023°39'0 0.0
2017-Aug-10 02:00N 37°56' E 023°39'0 0.0
2017-Aug-10 01:30N 37°56' E 023°39'0 0.0
2017-Aug-10 01:00N 37°56' E 023°39'0 0.0
2017-Aug-10 00:30N 37°56' E 023°39'0 0.0
2017-Aug-10 00:00N 37°56' E 023°39'0 0.6
2017-Aug-09 23:30N 37°56' E 023°39'611.5
2017-Aug-09 23:00N 37°52' E 023°34'611.8
2017-Aug-09 22:30N 37°51' E 023°26'  
2017-Aug-05 12:09N 38°12' E 020°20'212.2
2017-Aug-05 11:59N 38°10' E 020°20'  
Track history (hours):
 
Tides and Currents Weather Stations Pressure Air Temp Water Temp Dewpoint Dewpoint Depression Visibility Wind Speed Wind Dir Waves Ship Positions

Oneiro

Last reported at 2017-Aug-13 21:57 UTC. Time now 2017-Aug-19 05:30 UTC.
Position N 37°54' E 023°04'.

Length 53 m; draft 3 m.

Type: Pleasure craft. MMSI: 241024000.

Date/timePositionNaut miles runAvg speedWind from/ knotsBaromVisibWave heightAir tempDewpointWater temp
2017-Aug-13 21:57N 37°54' E 023°04'912.3
2017-Aug-13 21:14N 37°52' E 023°15'312.4
2017-Aug-13 21:00N 37°51' E 023°19'612.4
2017-Aug-13 20:30N 37°50' E 023°26'612.3
2017-Aug-13 20:01N 37°47' E 023°33'3 1.0
2017-Aug-13 17:34N 37°45' E 023°33'0 0.0
2017-Aug-13 17:26N 37°45' E 023°33'0 0.1
2017-Aug-13 17:00N 37°45' E 023°33'611.4
2017-Aug-13 16:30N 37°41' E 023°39'53 2.4
2017-Aug-12 18:12N 37°31' E 024°44'312.6
2017-Aug-12 17:57N 37°32' E 024°48'1212.6
2017-Aug-12 16:59N 37°32' E 025°03'510.0
2017-Aug-12 16:28N 37°32' E 025°10'0 0.0
2017-Aug-12 15:43N 37°32' E 025°10'0 0.0
2017-Aug-12 15:24N 37°32' E 025°10'0 0.0
2017-Aug-12 14:59N 37°32' E 025°10'0 0.0
2017-Aug-12 14:26N 37°32' E 025°10'0 0.0
2017-Aug-12 13:54N 37°32' E 025°10'0 0.0
2017-Aug-12 13:30N 37°32' E 025°10'0 0.0
2017-Aug-12 12:58N 37°32' E 025°10'0 0.0
2017-Aug-12 12:30N 37°32' E 025°10'0 0.0
2017-Aug-12 12:00N 37°32' E 025°10'0 0.0
2017-Aug-12 11:29N 37°32' E 025°10'0 0.0
2017-Aug-12 11:00N 37°32' E 025°10'0 0.0
2017-Aug-12 10:23N 37°32' E 025°10'0 0.0
2017-Aug-12 09:59N 37°32' E 025°10'0 0.0
2017-Aug-12 09:28N 37°32' E 025°10'0 0.1
2017-Aug-12 08:55N 37°32' E 025°10'1 1.3
2017-Aug-12 08:30N 37°32' E 025°09'6011.6
2017-Aug-12 03:20N 37°41' E 023°54'412.4
2017-Aug-12 03:00N 37°44' E 023°50'611.8
2017-Aug-12 02:30N 37°48' E 023°46'0 0.6
2017-Aug-12 02:00N 37°49' E 023°46'0 0.0
2017-Aug-12 01:30N 37°49' E 023°46'0 0.0
2017-Aug-12 01:00N 37°49' E 023°46'0 0.0
2017-Aug-12 00:30N 37°49' E 023°46'0 0.0
2017-Aug-12 00:00N 37°49' E 023°46'0 0.0
2017-Aug-11 23:30N 37°49' E 023°46'0 0.0
2017-Aug-11 23:00N 37°49' E 023°46'0 0.0
2017-Aug-11 22:30N 37°49' E 023°46'0 0.0
2017-Aug-11 22:00N 37°49' E 023°46'0 0.0
2017-Aug-11 21:30N 37°49' E 023°46'0 0.0
2017-Aug-11 21:00N 37°49' E 023°46'0 0.0
2017-Aug-11 20:30N 37°49' E 023°46'0 0.0
2017-Aug-11 20:00N 37°49' E 023°46'0 0.0
2017-Aug-11 19:30N 37°49' E 023°46'0 0.0
2017-Aug-11 19:00N 37°49' E 023°46'0 0.0
2017-Aug-11 18:30N 37°49' E 023°46'0 0.0
2017-Aug-11 18:00N 37°49' E 023°46'0 0.1
2017-Aug-11 17:30N 37°49' E 023°46'510.2
2017-Aug-11 17:00N 37°52' E 023°42'4 8.5
2017-Aug-11 16:30N 37°56' E 023°39'0 0.0
2017-Aug-11 16:00N 37°56' E 023°39'0 0.0
2017-Aug-11 15:30N 37°56' E 023°39'0 0.0
2017-Aug-11 15:00N 37°56' E 023°39'0 0.0
2017-Aug-11 14:30N 37°56' E 023°39'0 0.0
2017-Aug-11 13:30N 37°56' E 023°39'0 0.0
2017-Aug-11 13:00N 37°56' E 023°39'0 0.0
2017-Aug-11 12:30N 37°56' E 023°39'0 0.0
2017-Aug-11 12:00N 37°56' E 023°39'0 0.0
2017-Aug-11 11:30N 37°56' E 023°39'0 0.0
2017-Aug-11 11:00N 37°56' E 023°39'0 0.0
2017-Aug-11 10:30N 37°56' E 023°39'0 0.0
2017-Aug-11 10:00N 37°56' E 023°39'0 0.0
2017-Aug-11 09:30N 37°56' E 023°39'0 0.0
2017-Aug-11 09:00N 37°56' E 023°39'0 0.0
2017-Aug-11 08:30N 37°56' E 023°39'0 0.0
2017-Aug-11 08:00N 37°56' E 023°39'0 0.0
2017-Aug-11 07:30N 37°56' E 023°39'0 0.0
2017-Aug-11 07:00N 37°56' E 023°39'0 0.0
2017-Aug-11 06:30N 37°56' E 023°39'0 0.0
2017-Aug-11 06:00N 37°56' E 023°39'0 0.0
2017-Aug-11 05:30N 37°56' E 023°39'0 0.0
2017-Aug-11 05:00N 37°56' E 023°39'0 0.0
2017-Aug-11 04:30N 37°56' E 023°39'0 0.0
2017-Aug-11 04:00N 37°56' E 023°39'0 0.0
2017-Aug-11 03:30N 37°56' E 023°39'0 0.0
2017-Aug-11 03:00N 37°56' E 023°39'0 0.0
2017-Aug-11 02:30N 37°56' E 023°39'0 0.0
2017-Aug-11 02:00N 37°56' E 023°39'0 0.0
2017-Aug-11 01:30N 37°56' E 023°39'0 0.0
2017-Aug-11 01:00N 37°56' E 023°39'0 0.0
2017-Aug-11 00:30N 37°56' E 023°39'0 0.0
2017-Aug-11 00:00N 37°56' E 023°39'0 0.0
2017-Aug-10 23:30N 37°56' E 023°39'0 0.0
2017-Aug-10 23:00N 37°56' E 023°39'0 0.0
2017-Aug-10 22:30N 37°56' E 023°39'0 0.0
2017-Aug-10 22:00N 37°56' E 023°39'0 0.0
2017-Aug-10 21:30N 37°56' E 023°39'0 0.0
2017-Aug-10 21:00N 37°56' E 023°39'0 0.0
2017-Aug-10 20:30N 37°56' E 023°39'0 0.0
2017-Aug-10 20:00N 37°56' E 023°39'0 0.0
2017-Aug-10 19:30N 37°56' E 023°39'0 0.0
2017-Aug-10 19:00N 37°56' E 023°39'0 0.0
2017-Aug-10 18:30N 37°56' E 023°39'0 0.0
2017-Aug-10 18:00N 37°56' E 023°39'0 0.0
2017-Aug-10 17:30N 37°56' E 023°39'0 0.0
2017-Aug-10 17:00N 37°56' E 023°39'0 0.0
2017-Aug-10 16:30N 37°56' E 023°39'0 0.0
2017-Aug-10 16:00N 37°56' E 023°39'0 0.0
2017-Aug-10 15:30N 37°56' E 023°39'0 0.0
2017-Aug-10 15:00N 37°56' E 023°39'0 0.0
2017-Aug-10 14:30N 37°56' E 023°39'0 0.0
2017-Aug-10 14:00N 37°56' E 023°39'0 0.0
2017-Aug-10 13:30N 37°56' E 023°39'0 0.0
2017-Aug-10 13:00N 37°56' E 023°39'0 0.0
2017-Aug-10 12:30N 37°56' E 023°39'0 0.0
2017-Aug-10 12:00N 37°56' E 023°39'0 0.0
2017-Aug-10 11:30N 37°56' E 023°39'0 0.0
2017-Aug-10 11:00N 37°56' E 023°39'0 0.0
2017-Aug-10 10:30N 37°56' E 023°39'0 0.0
2017-Aug-10 10:00N 37°56' E 023°39'0 0.0
2017-Aug-10 09:30N 37°56' E 023°39'0 0.0
2017-Aug-10 09:00N 37°56' E 023°39'0 0.0
2017-Aug-10 08:30N 37°56' E 023°39'0 0.0
2017-Aug-10 08:00N 37°56' E 023°39'0 0.0
2017-Aug-10 07:30N 37°56' E 023°39'0 0.0
2017-Aug-10 07:00N 37°56' E 023°39'0 0.0
2017-Aug-10 06:30N 37°56' E 023°39'0 0.0
2017-Aug-10 06:00N 37°56' E 023°39'0 0.0
2017-Aug-10 05:30N 37°56' E 023°39'0 0.0
2017-Aug-10 05:00N 37°56' E 023°39'0 0.0
2017-Aug-10 04:30N 37°56' E 023°39'0 0.0
2017-Aug-10 04:00N 37°56' E 023°39'0 0.0
2017-Aug-10 03:30N 37°56' E 023°39'0 0.0
2017-Aug-10 03:00N 37°56' E 023°39'0 0.0
2017-Aug-10 02:30N 37°56' E 023°39'0 0.0
2017-Aug-10 02:00N 37°56' E 023°39'0 0.0
2017-Aug-10 01:30N 37°56' E 023°39'0 0.0
2017-Aug-10 01:00N 37°56' E 023°39'0 0.0
2017-Aug-10 00:30N 37°56' E 023°39'0 0.0
2017-Aug-10 00:00N 37°56' E 023°39'0 0.6
2017-Aug-09 23:30N 37°56' E 023°39'611.5
2017-Aug-09 23:00N 37°52' E 023°34'611.8
2017-Aug-09 22:30N 37°51' E 023°26'  
2017-Aug-05 12:09N 38°12' E 020°20'212.2
2017-Aug-05 11:59N 38°10' E 020°20'  

Dump ship's entire track history